createdAt,value
2022-11-17T00:01:15.044Z,91.30
2022-11-17T00:06:42.815Z,91.40
2022-11-17T00:12:43.042Z,91.30
2022-11-17T00:18:29.579Z,91.30
2022-11-17T00:23:58.165Z,91.30
2022-11-17T00:29:25.993Z,91.30
2022-11-17T00:34:53.791Z,91.40
2022-11-17T00:40:21.534Z,91.40
2022-11-17T00:45:49.335Z,91.40
2022-11-17T00:51:17.156Z,91.40
2022-11-17T00:56:45.515Z,91.40
2022-11-17T01:02:13.314Z,91.30
2022-11-17T01:07:41.289Z,91.40
2022-11-17T01:13:09.103Z,91.40
2022-11-17T01:18:37.915Z,91.40
2022-11-17T01:24:06.283Z,91.40
2022-11-17T01:29:34.151Z,91.40
2022-11-17T01:35:02.050Z,91.40
2022-11-17T01:40:29.750Z,91.50
2022-11-17T01:45:58.851Z,91.50
2022-11-17T01:51:30.324Z,91.50
2022-11-17T01:57:04.759Z,91.60
2022-11-17T02:02:34.997Z,91.50
2022-11-17T02:08:06.112Z,91.90
2022-11-17T02:13:36.274Z,91.70
2022-11-17T02:19:04.641Z,91.60
2022-11-17T02:24:50.429Z,91.70
2022-11-17T02:30:22.183Z,91.70
2022-11-17T02:36:07.585Z,91.70
2022-11-17T02:41:50.483Z,91.70
2022-11-17T02:47:32.369Z,91.80
2022-11-17T02:53:00.290Z,91.80
2022-11-17T02:58:28.020Z,91.80
2022-11-17T03:04:30.507Z,91.90
2022-11-17T03:10:17.977Z,91.90
2022-11-17T03:16:17.041Z,91.90
2022-11-17T03:22:18.454Z,92.00
2022-11-17T03:27:52.167Z,92.00
2022-11-17T03:33:23.734Z,92.10
2022-11-17T03:39:04.313Z,92.20
2022-11-17T03:44:38.833Z,92.20
2022-11-17T03:50:18.873Z,92.20
2022-11-17T03:56:16.233Z,92.20
2022-11-17T04:01:44.143Z,92.20
2022-11-17T04:07:12.033Z,92.20
2022-11-17T04:12:58.811Z,92.20
2022-11-17T04:18:27.253Z,92.20
2022-11-17T04:23:56.157Z,92.20
2022-11-17T04:29:23.965Z,92.30
2022-11-17T04:34:51.754Z,92.30
2022-11-17T04:40:19.546Z,92.30
2022-11-17T04:45:47.291Z,92.30
2022-11-17T04:51:16.894Z,92.40
2022-11-17T04:56:45.395Z,92.40
2022-11-17T05:02:13.167Z,92.40
2022-11-17T05:07:41.062Z,92.50
2022-11-17T05:13:22.186Z,92.50
2022-11-17T05:18:49.936Z,92.50
2022-11-17T05:24:18.536Z,92.50
2022-11-17T05:29:46.766Z,92.50
2022-11-17T05:35:14.722Z,92.40
2022-11-17T05:40:42.509Z,92.50
2022-11-17T05:46:10.869Z,92.50
2022-11-17T05:51:38.827Z,92.50
2022-11-17T05:57:22.776Z,92.50
2022-11-17T06:02:58.025Z,92.60
2022-11-17T06:08:29.123Z,92.50
2022-11-17T06:13:56.889Z,92.60
2022-11-17T06:19:39.944Z,92.60
2022-11-17T06:25:10.068Z,92.60
2022-11-17T06:30:39.156Z,92.60
2022-11-17T06:36:08.681Z,92.70
2022-11-17T06:41:36.976Z,92.60
2022-11-17T06:47:04.809Z,92.70
2022-11-17T06:52:32.776Z,92.70
2022-11-17T06:58:09.293Z,92.70
2022-11-17T07:03:39.187Z,92.70
2022-11-17T07:09:07.065Z,92.80
2022-11-17T07:14:35.069Z,92.80
2022-11-17T07:20:04.230Z,92.80
2022-11-17T07:25:32.222Z,92.90
2022-11-17T07:31:06.921Z,92.90
2022-11-17T07:36:34.709Z,92.90
2022-11-17T07:42:02.581Z,92.90
2022-11-17T07:47:30.364Z,93.00
2022-11-17T07:52:58.615Z,93.00
2022-11-17T07:58:26.615Z,93.00
2022-11-17T08:03:54.843Z,93.00
2022-11-17T08:09:22.696Z,93.00
2022-11-17T08:14:50.557Z,93.10
2022-11-17T08:20:18.446Z,93.10
2022-11-17T08:25:46.222Z,93.10
2022-11-17T08:31:14.059Z,93.20
2022-11-17T08:36:41.900Z,93.20
2022-11-17T08:42:09.750Z,93.20
2022-11-17T08:47:38.540Z,93.20
2022-11-17T08:53:06.389Z,93.20
2022-11-17T08:58:45.314Z,93.20
2022-11-17T09:04:13.159Z,93.20
2022-11-17T09:09:41.028Z,93.20
2022-11-17T09:15:09.889Z,93.10
2022-11-17T09:20:42.751Z,93.10
2022-11-17T09:26:15.918Z,93.10
2022-11-17T09:31:43.789Z,93.30
2022-11-17T09:37:11.632Z,93.60
2022-11-17T09:42:41.468Z,93.70
2022-11-17T09:48:46.288Z,93.50
2022-11-17T09:54:30.924Z,93.60
2022-11-17T10:00:14.987Z,93.60
2022-11-17T10:05:43.435Z,93.50
2022-11-17T10:11:33.297Z,93.50
2022-11-17T10:17:01.144Z,93.50
2022-11-17T10:22:38.504Z,93.30
2022-11-17T10:28:08.900Z,93.40
2022-11-17T10:33:48.216Z,93.40
2022-11-17T10:39:41.645Z,93.40
2022-11-17T10:45:18.134Z,93.30
2022-11-17T10:50:58.404Z,93.30
2022-11-17T10:56:26.497Z,93.10
2022-11-17T11:01:54.391Z,92.90
2022-11-17T11:07:23.843Z,92.80
2022-11-17T11:13:10.657Z,92.80
2022-11-17T11:18:39.129Z,92.70
2022-11-17T11:24:35.084Z,92.50
2022-11-17T11:30:06.731Z,92.40
2022-11-17T11:36:15.658Z,92.20
2022-11-17T11:42:08.250Z,92.20
2022-11-17T11:47:57.879Z,92.00
2022-11-17T11:53:47.854Z,91.90
2022-11-17T11:59:21.344Z,91.80
2022-11-17T12:05:14.237Z,91.60
2022-11-17T12:11:27.209Z,91.20
2022-11-17T12:17:14.863Z,90.80
2022-11-17T12:23:03.828Z,90.60
2022-11-17T12:28:40.703Z,90.50
2022-11-17T12:34:11.800Z,90.40
2022-11-17T12:40:08.907Z,90.30
2022-11-17T12:46:13.448Z,90.10
2022-11-17T12:52:05.099Z,90.00
2022-11-17T12:57:34.632Z,89.00
2022-11-17T13:03:27.567Z,87.60
2022-11-17T13:08:56.945Z,87.00
2022-11-17T13:14:24.700Z,86.50
2022-11-17T13:20:17.835Z,86.00
2022-11-17T13:25:45.560Z,85.60
2022-11-17T13:31:24.069Z,85.50
2022-11-17T13:37:00.897Z,85.30
2022-11-17T13:42:32.087Z,85.00
2022-11-17T13:47:59.934Z,83.60
2022-11-17T13:53:27.764Z,83.50
2022-11-17T13:58:56.444Z,81.90
2022-11-17T14:04:24.599Z,80.60
2022-11-17T14:10:12.908Z,81.70
2022-11-17T14:15:42.794Z,82.50
2022-11-17T14:21:18.975Z,82.10
2022-11-17T14:26:46.735Z,82.30
2022-11-17T14:32:14.652Z,81.50
2022-11-17T14:37:43.224Z,81.70
2022-11-17T14:43:11.398Z,82.20
2022-11-17T14:48:39.086Z,82.50
2022-11-17T14:54:07.154Z,82.80
2022-11-17T14:59:35.013Z,82.80
2022-11-17T15:05:03.517Z,82.80
2022-11-17T15:10:31.364Z,82.60
2022-11-17T15:16:06.300Z,82.60
2022-11-17T15:21:35.452Z,82.70
2022-11-17T15:27:03.320Z,82.70
2022-11-17T15:32:31.206Z,82.70
2022-11-17T15:37:59.059Z,82.80
2022-11-17T15:43:32.572Z,82.80
2022-11-17T15:49:00.572Z,83.00
2022-11-17T15:54:28.354Z,82.90
2022-11-17T15:59:56.094Z,83.10
2022-11-17T16:05:23.983Z,83.20
2022-11-17T16:10:52.058Z,83.20
2022-11-17T16:16:20.378Z,83.30
2022-11-17T16:21:49.884Z,84.50
2022-11-17T16:27:17.706Z,84.50
2022-11-17T16:32:45.879Z,84.50
2022-11-17T16:38:16.936Z,84.50
2022-11-17T16:43:44.867Z,84.60
2022-11-17T16:49:17.284Z,84.70
2022-11-17T16:54:45.418Z,84.80
2022-11-17T17:00:15.172Z,84.90
2022-11-17T17:05:42.933Z,85.10
2022-11-17T17:11:15.263Z,85.10
2022-11-17T17:16:43.349Z,85.10
2022-11-17T17:22:11.895Z,85.10
2022-11-17T17:27:39.999Z,85.10
2022-11-17T17:33:09.285Z,85.40
2022-11-17T17:38:37.497Z,85.40
2022-11-17T17:44:07.587Z,85.60
2022-11-17T17:49:35.298Z,85.90
2022-11-17T17:55:03.330Z,86.10
2022-11-17T18:00:31.327Z,86.30
2022-11-17T18:06:02.820Z,86.50
2022-11-17T18:11:30.588Z,86.50
2022-11-17T18:16:58.806Z,86.80
2022-11-17T18:22:26.673Z,86.80
2022-11-17T18:27:54.603Z,86.80
2022-11-17T18:33:22.491Z,86.90
2022-11-17T18:38:52.144Z,87.10
2022-11-17T18:44:20.061Z,87.00
2022-11-17T18:49:47.992Z,87.00
2022-11-17T18:55:15.944Z,87.10
2022-11-17T19:00:43.759Z,87.20
2022-11-17T19:06:13.081Z,87.20
2022-11-17T19:11:40.851Z,87.30
2022-11-17T19:17:08.731Z,87.40
2022-11-17T19:22:36.538Z,87.50
2022-11-17T19:28:05.920Z,87.60
2022-11-17T19:33:35.890Z,87.60
2022-11-17T19:39:04.497Z,87.70
2022-11-17T19:44:32.281Z,87.80
2022-11-17T19:50:00.234Z,87.80
2022-11-17T19:55:27.974Z,87.90
2022-11-17T20:00:55.863Z,88.00
2022-11-17T20:06:27.574Z,88.10
2022-11-17T20:11:55.933Z,88.10
2022-11-17T20:17:25.069Z,88.30
2022-11-17T20:22:52.894Z,88.30
2022-11-17T20:28:20.850Z,88.40
2022-11-17T20:33:49.229Z,88.60
2022-11-17T20:39:17.235Z,88.60
2022-11-17T20:44:48.553Z,88.70
2022-11-17T20:50:16.956Z,88.90
2022-11-17T20:55:44.962Z,89.00
2022-11-17T21:01:19.399Z,89.20
2022-11-17T21:06:47.376Z,89.20
2022-11-17T21:12:15.226Z,89.30
2022-11-17T21:18:01.690Z,89.30
2022-11-17T21:23:29.585Z,89.30
2022-11-17T21:29:01.875Z,89.40
2022-11-17T21:34:33.944Z,89.50
2022-11-17T21:40:01.847Z,89.50
2022-11-17T21:45:29.832Z,89.60
2022-11-17T21:50:57.788Z,89.70
2022-11-17T21:56:28.090Z,89.70
2022-11-17T22:01:56.385Z,89.90
2022-11-17T22:07:24.555Z,90.00
2022-11-17T22:12:52.496Z,90.00
2022-11-17T22:18:20.306Z,90.00
2022-11-17T22:23:48.099Z,90.00
2022-11-17T22:29:21.831Z,90.00
2022-11-17T22:34:49.906Z,90.00
2022-11-17T22:40:18.521Z,90.00
2022-11-17T22:45:46.356Z,90.10
2022-11-17T22:51:34.425Z,90.10
2022-11-17T22:57:02.469Z,90.30
2022-11-17T23:02:30.256Z,90.30
2022-11-17T23:07:58.011Z,90.30
2022-11-17T23:13:25.742Z,90.40
2022-11-17T23:18:55.315Z,90.40
2022-11-17T23:24:23.183Z,90.50
2022-11-17T23:29:50.994Z,90.60
2022-11-17T23:35:18.681Z,90.60
2022-11-17T23:40:46.416Z,90.70
2022-11-17T23:46:18.860Z,90.70
2022-11-17T23:51:46.628Z,90.80
2022-11-17T23:57:14.412Z,90.80
